sensor_id;sensor_type;location;lat;lon;timestamp;pressure;altitude;pressure_sealevel;temperature;humidity
75692;BME280;64307;52.508;6.090;2023-06-14T00:00:50;101564.34;;;18.63;48.02
75692;BME280;64307;52.508;6.090;2023-06-14T00:03:22;101569.19;;;18.62;48.19
75692;BME280;64307;52.508;6.090;2023-06-14T00:05:49;101579.75;;;18.58;48.49
75692;BME280;64307;52.508;6.090;2023-06-14T00:08:15;101554.56;;;18.48;48.25
75692;BME280;64307;52.508;6.090;2023-06-14T00:10:41;101571.56;;;18.44;48.73
75692;BME280;64307;52.508;6.090;2023-06-14T00:13:08;101570.00;;;18.40;48.62
75692;BME280;64307;52.508;6.090;2023-06-14T00:15:33;101573.63;;;18.40;48.76
75692;BME280;64307;52.508;6.090;2023-06-14T00:17:59;101561.41;;;18.27;48.95
75692;BME280;64307;52.508;6.090;2023-06-14T00:20:28;101575.50;;;18.27;48.93
75692;BME280;64307;52.508;6.090;2023-06-14T00:22:54;101570.78;;;18.21;49.14
75692;BME280;64307;52.508;6.090;2023-06-14T00:25:22;101570.94;;;18.14;49.27
75692;BME280;64307;52.508;6.090;2023-06-14T00:27:47;101563.88;;;18.02;49.39
75692;BME280;64307;52.508;6.090;2023-06-14T00:30:13;101561.13;;;17.98;49.23
75692;BME280;64307;52.508;6.090;2023-06-14T00:32:40;101570.09;;;17.93;49.49
75692;BME280;64307;52.508;6.090;2023-06-14T00:35:05;101553.38;;;17.83;50.08
75692;BME280;64307;52.508;6.090;2023-06-14T00:37:33;101564.13;;;17.88;49.79
75692;BME280;64307;52.508;6.090;2023-06-14T00:39:58;101576.75;;;17.80;50.00
75692;BME280;64307;52.508;6.090;2023-06-14T00:42:27;101577.28;;;17.75;50.20
75692;BME280;64307;52.508;6.090;2023-06-14T00:44:52;101572.53;;;17.68;50.36
75692;BME280;64307;52.508;6.090;2023-06-14T00:47:18;101580.19;;;17.68;50.32
75692;BME280;64307;52.508;6.090;2023-06-14T00:49:49;101582.63;;;17.66;50.51
75692;BME280;64307;52.508;6.090;2023-06-14T00:52:16;101561.56;;;17.51;50.49
75692;BME280;64307;52.508;6.090;2023-06-14T00:54:41;101583.97;;;17.58;50.71
75692;BME280;64307;52.508;6.090;2023-06-14T00:57:08;101590.13;;;17.53;50.77
75692;BME280;64307;52.508;6.090;2023-06-14T00:59:43;101585.63;;;17.55;50.81
75692;BME280;64307;52.508;6.090;2023-06-14T01:02:09;101578.47;;;17.47;51.20
75692;BME280;64307;52.508;6.090;2023-06-14T01:04:34;101578.66;;;17.37;51.61
75692;BME280;64307;52.508;6.090;2023-06-14T01:07:14;101574.63;;;17.38;51.51
75692;BME280;64307;52.508;6.090;2023-06-14T01:13:19;101579.13;;;17.32;51.54
75692;BME280;64307;52.508;6.090;2023-06-14T01:15:34;101594.56;;;17.24;52.17
75692;BME280;64307;52.508;6.090;2023-06-14T01:18:01;101588.53;;;17.22;51.90
75692;BME280;64307;52.508;6.090;2023-06-14T01:20:32;101579.34;;;17.17;52.26
75692;BME280;64307;52.508;6.090;2023-06-14T01:23:01;101571.38;;;17.12;52.23
75692;BME280;64307;52.508;6.090;2023-06-14T01:25:27;101586.31;;;17.09;52.43
75692;BME280;64307;52.508;6.090;2023-06-14T01:28:01;101589.59;;;17.04;52.58
75692;BME280;64307;52.508;6.090;2023-06-14T01:30:30;101582.00;;;17.01;52.53
75692;BME280;64307;52.508;6.090;2023-06-14T01:32:58;101586.06;;;16.97;52.71
75692;BME280;64307;52.508;6.090;2023-06-14T01:35:24;101584.09;;;16.94;53.11
75692;BME280;64307;52.508;6.090;2023-06-14T01:37:51;101582.16;;;16.91;52.93
75692;BME280;64307;52.508;6.090;2023-06-14T01:40:17;101592.28;;;16.85;53.38
75692;BME280;64307;52.508;6.090;2023-06-14T01:42:46;101583.47;;;16.79;53.48
75692;BME280;64307;52.508;6.090;2023-06-14T01:45:13;101585.16;;;16.73;53.43
75692;BME280;64307;52.508;6.090;2023-06-14T01:47:40;101594.03;;;16.72;53.79
75692;BME280;64307;52.508;6.090;2023-06-14T01:50:06;101592.59;;;16.60;54.09
75692;BME280;64307;52.508;6.090;2023-06-14T01:52:31;101592.22;;;16.58;54.33
75692;BME280;64307;52.508;6.090;2023-06-14T01:54:57;101583.41;;;16.56;54.40
75692;BME280;64307;52.508;6.090;2023-06-14T01:57:23;101582.25;;;16.50;54.30
75692;BME280;64307;52.508;6.090;2023-06-14T01:59:50;101583.06;;;16.47;54.40
75692;BME280;64307;52.508;6.090;2023-06-14T02:02:15;101591.06;;;16.49;54.84
75692;BME280;64307;52.508;6.090;2023-06-14T02:04:41;101587.91;;;16.43;55.04
75692;BME280;64307;52.508;6.090;2023-06-14T02:07:06;101592.78;;;16.39;55.14
75692;BME280;64307;52.508;6.090;2023-06-14T02:09:36;101591.22;;;16.34;55.10
75692;BME280;64307;52.508;6.090;2023-06-14T02:12:03;101590.47;;;16.30;55.49
75692;BME280;64307;52.508;6.090;2023-06-14T02:14:28;101590.13;;;16.25;55.81
75692;BME280;64307;52.508;6.090;2023-06-14T02:16:53;101599.00;;;16.23;55.81
75692;BME280;64307;52.508;6.090;2023-06-14T02:19:20;101594.25;;;16.17;56.16
75692;BME280;64307;52.508;6.090;2023-06-14T02:21:46;101593.09;;;16.11;56.56
75692;BME280;64307;52.508;6.090;2023-06-14T02:24:14;101591.88;;;16.12;56.50
75692;BME280;64307;52.508;6.090;2023-06-14T02:26:40;101594.69;;;16.12;56.33
75692;BME280;64307;52.508;6.090;2023-06-14T02:29:08;101592.72;;;16.09;56.46
75692;BME280;64307;52.508;6.090;2023-06-14T02:31:36;101601.16;;;16.09;56.71
75692;BME280;64307;52.508;6.090;2023-06-14T02:34:01;101602.78;;;16.06;56.81
75692;BME280;64307;52.508;6.090;2023-06-14T02:36:26;101586.81;;;15.93;56.93
75692;BME280;64307;52.508;6.090;2023-06-14T02:38:52;101586.06;;;15.89;57.13
75692;BME280;64307;52.508;6.090;2023-06-14T02:41:19;101594.88;;;15.91;57.68
75692;BME280;64307;52.508;6.090;2023-06-14T02:43:44;101598.47;;;15.91;57.83
75692;BME280;64307;52.508;6.090;2023-06-14T02:46:10;101593.28;;;15.90;58.06
75692;BME280;64307;52.508;6.090;2023-06-14T02:48:36;101593.72;;;15.85;57.86
75692;BME280;64307;52.508;6.090;2023-06-14T02:51:01;101598.97;;;15.83;58.22
75692;BME280;64307;52.508;6.090;2023-06-14T02:53:27;101591.78;;;15.78;58.37
75692;BME280;64307;52.508;6.090;2023-06-14T02:55:52;101599.84;;;15.76;58.52
75692;BME280;64307;52.508;6.090;2023-06-14T02:58:17;101603.03;;;15.75;58.81
75692;BME280;64307;52.508;6.090;2023-06-14T03:00:44;101605.06;;;15.71;58.89
75692;BME280;64307;52.508;6.090;2023-06-14T03:03:10;101605.91;;;15.68;59.33
75692;BME280;64307;52.508;6.090;2023-06-14T03:05:46;101609.16;;;15.63;59.52
75692;BME280;64307;52.508;6.090;2023-06-14T03:08:13;101598.34;;;15.61;59.45
75692;BME280;64307;52.508;6.090;2023-06-14T03:10:48;101612.81;;;15.60;59.66
75692;BME280;64307;52.508;6.090;2023-06-14T03:13:17;101621.28;;;15.52;60.17
75692;BME280;64307;52.508;6.090;2023-06-14T03:15:46;101619.25;;;15.53;60.44
75692;BME280;64307;52.508;6.090;2023-06-14T03:18:12;101623.66;;;15.54;60.10
75692;BME280;64307;52.508;6.090;2023-06-14T03:20:40;101621.72;;;15.47;60.58
75692;BME280;64307;52.508;6.090;2023-06-14T03:23:06;101626.13;;;15.48;60.68
75692;BME280;64307;52.508;6.090;2023-06-14T03:25:32;101618.50;;;15.42;60.90
75692;BME280;64307;52.508;6.090;2023-06-14T03:28:01;101622.50;;;15.48;60.92
75692;BME280;64307;52.508;6.090;2023-06-14T03:30:27;101627.34;;;15.44;61.17
75692;BME280;64307;52.508;6.090;2023-06-14T03:32:53;101630.53;;;15.46;61.16
75692;BME280;64307;52.508;6.090;2023-06-14T03:35:20;101641.00;;;15.45;61.46
75692;BME280;64307;52.508;6.090;2023-06-14T03:37:46;101645.78;;;15.45;61.42
75692;BME280;64307;52.508;6.090;2023-06-14T03:40:16;101630.91;;;15.48;61.43
75692;BME280;64307;52.508;6.090;2023-06-14T03:42:41;101634.94;;;15.47;61.65
75692;BME280;64307;52.508;6.090;2023-06-14T03:45:08;101636.53;;;15.48;61.25
75692;BME280;64307;52.508;6.090;2023-06-14T03:47:35;101641.38;;;15.40;61.98
75692;BME280;64307;52.508;6.090;2023-06-14T03:50:02;101641.38;;;15.47;61.76
75692;BME280;64307;52.508;6.090;2023-06-14T03:52:27;101643.00;;;15.45;62.15
75692;BME280;64307;52.508;6.090;2023-06-14T03:54:53;101646.25;;;15.33;62.35
75692;BME280;64307;52.508;6.090;2023-06-14T03:57:19;101646.19;;;15.40;62.28
75692;BME280;64307;52.508;6.090;2023-06-14T03:59:45;101639.78;;;15.43;62.68
75692;BME280;64307;52.508;6.090;2023-06-14T04:02:11;101652.22;;;15.45;62.41
75692;BME280;64307;52.508;6.090;2023-06-14T04:04:37;101651.78;;;15.47;62.53
75692;BME280;64307;52.508;6.090;2023-06-14T04:07:02;101657.78;;;15.52;62.35
75692;BME280;64307;52.508;6.090;2023-06-14T04:09:31;101655.28;;;15.65;62.45
75692;BME280;64307;52.508;6.090;2023-06-14T04:11:59;101649.34;;;15.52;62.57
75692;BME280;64307;52.508;6.090;2023-06-14T04:14:25;101650.78;;;15.75;62.03
75692;BME280;64307;52.508;6.090;2023-06-14T04:16:50;101668.38;;;16.30;60.54
75692;BME280;64307;52.508;6.090;2023-06-14T04:19:15;101660.25;;;18.20;54.68
75692;BME280;64307;52.508;6.090;2023-06-14T04:21:41;101667.31;;;19.85;49.80
75692;BME280;64307;52.508;6.090;2023-06-14T04:24:07;101663.44;;;21.42;45.59
75692;BME280;64307;52.508;6.090;2023-06-14T04:26:39;101671.16;;;21.54;45.36
75692;BME280;64307;52.508;6.090;2023-06-14T04:29:05;101667.13;;;20.98;46.68
75692;BME280;64307;52.508;6.090;2023-06-14T04:31:31;101668.00;;;21.90;44.66
75692;BME280;64307;52.508;6.090;2023-06-14T04:34:03;101663.53;;;21.64;44.41
75692;BME280;64307;52.508;6.090;2023-06-14T04:36:34;101680.00;;;22.07;43.62
75692;BME280;64307;52.508;6.090;2023-06-14T04:39:03;101683.78;;;22.85;42.50
75692;BME280;64307;52.508;6.090;2023-06-14T04:41:29;101689.41;;;22.97;41.24
75692;BME280;64307;52.508;6.090;2023-06-14T04:44:00;101684.25;;;23.48;40.21
75692;BME280;64307;52.508;6.090;2023-06-14T04:46:27;101697.50;;;22.52;42.49
75692;BME280;64307;52.508;6.090;2023-06-14T04:48:54;101692.69;;;22.74;41.58
75692;BME280;64307;52.508;6.090;2023-06-14T04:51:19;101703.25;;;22.27;43.26
75692;BME280;64307;52.508;6.090;2023-06-14T04:56:11;101692.84;;;23.14;41.25
75692;BME280;64307;52.508;6.090;2023-06-14T04:58:37;101713.66;;;24.24;39.11
75692;BME280;64307;52.508;6.090;2023-06-14T05:01:03;101699.50;;;24.03;39.63
75692;BME280;64307;52.508;6.090;2023-06-14T05:03:29;101697.44;;;25.15;37.22
75692;BME280;64307;52.508;6.090;2023-06-14T05:05:55;101708.06;;;25.84;35.72
75692;BME280;64307;52.508;6.090;2023-06-14T05:08:21;101706.31;;;25.17;37.04
75692;BME280;64307;52.508;6.090;2023-06-14T05:10:49;101705.75;;;27.01;34.35
75692;BME280;64307;52.508;6.090;2023-06-14T05:13:15;101723.25;;;27.17;33.94
75692;BME280;64307;52.508;6.090;2023-06-14T05:15:41;101727.16;;;26.02;35.42
75692;BME280;64307;52.508;6.090;2023-06-14T05:18:06;101720.31;;;26.64;34.94
75692;BME280;64307;52.508;6.090;2023-06-14T05:20:34;101721.00;;;27.21;34.26
75692;BME280;64307;52.508;6.090;2023-06-14T05:23:03;101730.72;;;26.53;34.36
75692;BME280;64307;52.508;6.090;2023-06-14T05:25:28;101709.13;;;27.28;33.81
75692;BME280;64307;52.508;6.090;2023-06-14T05:27:53;101723.09;;;28.63;31.06
75692;BME280;64307;52.508;6.090;2023-06-14T05:30:19;101712.47;;;27.12;32.83
75692;BME280;64307;52.508;6.090;2023-06-14T05:32:45;101727.50;;;26.84;33.99
75692;BME280;64307;52.508;6.090;2023-06-14T05:35:10;101726.13;;;27.32;32.69
75692;BME280;64307;52.508;6.090;2023-06-14T05:37:36;101729.19;;;26.66;34.08
75692;BME280;64307;52.508;6.090;2023-06-14T05:40:02;101724.13;;;26.05;35.70
75692;BME280;64307;52.508;6.090;2023-06-14T05:42:30;101719.66;;;27.46;32.63
75692;BME280;64307;52.508;6.090;2023-06-14T05:44:55;101726.63;;;28.03;31.37
75692;BME280;64307;52.508;6.090;2023-06-14T05:47:21;101720.91;;;27.89;31.90
75692;BME280;64307;52.508;6.090;2023-06-14T05:49:46;101723.19;;;27.99;31.68
75692;BME280;64307;52.508;6.090;2023-06-14T05:52:11;101721.69;;;27.89;31.86
75692;BME280;64307;52.508;6.090;2023-06-14T05:54:38;101731.88;;;29.20;29.82
75692;BME280;64307;52.508;6.090;2023-06-14T05:57:03;101733.06;;;29.59;29.33
75692;BME280;64307;52.508;6.090;2023-06-14T05:59:30;101736.72;;;29.34;29.67
75692;BME280;64307;52.508;6.090;2023-06-14T06:01:55;101740.47;;;29.71;29.10
75692;BME280;64307;52.508;6.090;2023-06-14T06:04:22;101738.56;;;30.67;28.30
75692;BME280;64307;52.508;6.090;2023-06-14T06:06:48;101751.69;;;28.98;29.67
75692;BME280;64307;52.508;6.090;2023-06-14T06:09:13;101745.38;;;29.65;29.00
75692;BME280;64307;52.508;6.090;2023-06-14T06:11:41;101748.19;;;28.54;30.33
75692;BME280;64307;52.508;6.090;2023-06-14T06:14:07;101754.94;;;29.31;28.90
75692;BME280;64307;52.508;6.090;2023-06-14T06:16:32;101747.94;;;30.62;27.24
75692;BME280;64307;52.508;6.090;2023-06-14T06:18:58;101755.56;;;29.15;29.23
75692;BME280;64307;52.508;6.090;2023-06-14T06:21:24;101754.09;;;30.08;28.14
75692;BME280;64307;52.508;6.090;2023-06-14T06:23:49;101745.44;;;31.57;26.28
75692;BME280;64307;52.508;6.090;2023-06-14T06:26:15;101743.56;;;29.93;28.09
75692;BME280;64307;52.508;6.090;2023-06-14T06:28:40;101754.94;;;31.04;27.00
75692;BME280;64307;52.508;6.090;2023-06-14T06:31:06;101757.78;;;30.45;27.48
75692;BME280;64307;52.508;6.090;2023-06-14T06:33:31;101752.03;;;30.45;26.93
75692;BME280;64307;52.508;6.090;2023-06-14T06:35:56;101750.41;;;31.89;25.58
75692;BME280;64307;52.508;6.090;2023-06-14T06:38:22;101758.56;;;32.02;24.91
75692;BME280;64307;52.508;6.090;2023-06-14T06:40:47;101768.25;;;28.88;29.00
75692;BME280;64307;52.508;6.090;2023-06-14T06:43:13;101761.31;;;30.29;27.15
75692;BME280;64307;52.508;6.090;2023-06-14T06:45:41;101773.19;;;31.76;25.51
75692;BME280;64307;52.508;6.090;2023-06-14T06:48:07;101788.63;;;31.57;24.62
75692;BME280;64307;52.508;6.090;2023-06-14T06:50:36;101776.16;;;30.22;26.77
75692;BME280;64307;52.508;6.090;2023-06-14T06:53:01;101782.84;;;30.08;26.99
75692;BME280;64307;52.508;6.090;2023-06-14T06:55:27;101783.41;;;30.48;26.80
75692;BME280;64307;52.508;6.090;2023-06-14T06:57:52;101768.22;;;31.55;25.54
75692;BME280;64307;52.508;6.090;2023-06-14T07:00:19;101782.78;;;32.78;24.22
75692;BME280;64307;52.508;6.090;2023-06-14T07:02:45;101776.84;;;34.04;22.58
75692;BME280;64307;52.508;6.090;2023-06-14T07:05:12;101778.09;;;32.75;23.52
75692;BME280;64307;52.508;6.090;2023-06-14T07:07:37;101791.00;;;31.53;24.87
75692;BME280;64307;52.508;6.090;2023-06-14T07:10:04;101782.38;;;30.88;25.61
75692;BME280;64307;52.508;6.090;2023-06-14T07:12:31;101789.75;;;31.98;24.25
75692;BME280;64307;52.508;6.090;2023-06-14T07:14:58;101777.66;;;33.23;23.21
75692;BME280;64307;52.508;6.090;2023-06-14T07:17:24;101786.66;;;33.55;22.66
75692;BME280;64307;52.508;6.090;2023-06-14T07:19:50;101787.59;;;31.60;24.87
75692;BME280;64307;52.508;6.090;2023-06-14T07:22:16;101785.66;;;31.34;24.99
75692;BME280;64307;52.508;6.090;2023-06-14T07:24:41;101791.22;;;30.42;26.17
75692;BME280;64307;52.508;6.090;2023-06-14T07:27:07;101786.19;;;30.68;25.33
75692;BME280;64307;52.508;6.090;2023-06-14T07:29:33;101801.22;;;31.70;24.34
75692;BME280;64307;52.508;6.090;2023-06-14T07:31:58;101794.44;;;30.19;25.32
75692;BME280;64307;52.508;6.090;2023-06-14T07:34:23;101815.44;;;30.67;25.83
75692;BME280;64307;52.508;6.090;2023-06-14T07:36:49;101814.41;;;29.51;27.16
75692;BME280;64307;52.508;6.090;2023-06-14T07:39:14;101793.19;;;27.98;28.65
75692;BME280;64307;52.508;6.090;2023-06-14T07:41:40;101826.28;;;27.08;30.41
75692;BME280;64307;52.508;6.090;2023-06-14T07:44:05;101810.63;;;26.71;31.48
75692;BME280;64307;52.508;6.090;2023-06-14T07:46:31;101809.69;;;26.98;30.91
75692;BME280;64307;52.508;6.090;2023-06-14T07:48:56;101807.69;;;26.24;31.25
75692;BME280;64307;52.508;6.090;2023-06-14T07:51:22;101813.25;;;26.60;30.80
75692;BME280;64307;52.508;6.090;2023-06-14T07:53:50;101811.25;;;26.42;31.19
75692;BME280;64307;52.508;6.090;2023-06-14T07:56:15;101814.22;;;26.15;31.48
75692;BME280;64307;52.508;6.090;2023-06-14T07:58:41;101804.91;;;26.80;30.93
75692;BME280;64307;52.508;6.090;2023-06-14T08:01:06;101808.25;;;26.69;30.64
75692;BME280;64307;52.508;6.090;2023-06-14T08:03:33;101816.13;;;26.84;30.87
75692;BME280;64307;52.508;6.090;2023-06-14T08:05:59;101811.97;;;27.32;30.05
75692;BME280;64307;52.508;6.090;2023-06-14T08:08:25;101824.19;;;28.00;29.01
75692;BME280;64307;52.508;6.090;2023-06-14T08:10:51;101812.72;;;26.38;31.04
75692;BME280;64307;52.508;6.090;2023-06-14T08:13:16;101818.66;;;26.91;31.02
75692;BME280;64307;52.508;6.090;2023-06-14T08:15:41;101813.28;;;26.84;31.54
75692;BME280;64307;52.508;6.090;2023-06-14T08:18:06;101806.41;;;27.81;29.59
75692;BME280;64307;52.508;6.090;2023-06-14T08:20:32;101807.59;;;28.18;28.87
75692;BME280;64307;52.508;6.090;2023-06-14T08:22:58;101802.75;;;28.94;28.06
75692;BME280;64307;52.508;6.090;2023-06-14T08:25:25;101810.84;;;27.68;30.21
75692;BME280;64307;52.508;6.090;2023-06-14T08:27:51;101826.16;;;27.50;30.23
75692;BME280;64307;52.508;6.090;2023-06-14T08:30:16;101807.19;;;27.82;30.05
75692;BME280;64307;52.508;6.090;2023-06-14T08:32:43;101802.50;;;28.08;29.25
75692;BME280;64307;52.508;6.090;2023-06-14T08:35:09;101795.72;;;28.25;28.83
75692;BME280;64307;52.508;6.090;2023-06-14T08:37:38;101800.81;;;28.01;30.03
75692;BME280;64307;52.508;6.090;2023-06-14T08:40:12;101800.78;;;27.87;29.28
75692;BME280;64307;52.508;6.090;2023-06-14T08:42:38;101796.75;;;28.08;29.28
75692;BME280;64307;52.508;6.090;2023-06-14T08:45:03;101797.94;;;27.72;29.10
75692;BME280;64307;52.508;6.090;2023-06-14T08:47:29;101804.47;;;26.96;31.41
75692;BME280;64307;52.508;6.090;2023-06-14T08:50:01;101787.84;;;28.06;30.02
75692;BME280;64307;52.508;6.090;2023-06-14T08:52:32;101788.91;;;27.94;29.92
75692;BME280;64307;52.508;6.090;2023-06-14T08:54:59;101795.06;;;27.58;30.20
75692;BME280;64307;52.508;6.090;2023-06-14T08:57:26;101808.00;;;28.26;29.26
75692;BME280;64307;52.508;6.090;2023-06-14T08:59:56;101798.00;;;28.21;29.20
75692;BME280;64307;52.508;6.090;2023-06-14T09:02:22;101807.56;;;27.07;29.55
75692;BME280;64307;52.508;6.090;2023-06-14T09:04:47;101819.13;;;26.56;30.42
75692;BME280;64307;52.508;6.090;2023-06-14T09:07:14;101816.16;;;27.22;30.11
75692;BME280;64307;52.508;6.090;2023-06-14T09:09:40;101807.59;;;27.75;28.71
75692;BME280;64307;52.508;6.090;2023-06-14T09:12:08;101805.25;;;28.02;28.57
75692;BME280;64307;52.508;6.090;2023-06-14T09:14:36;101811.34;;;27.28;29.65
75692;BME280;64307;52.508;6.090;2023-06-14T09:17:05;101803.47;;;28.89;27.57
75692;BME280;64307;52.508;6.090;2023-06-14T09:19:34;101805.63;;;27.95;28.18
75692;BME280;64307;52.508;6.090;2023-06-14T09:22:01;101817.50;;;28.17;28.13
75692;BME280;64307;52.508;6.090;2023-06-14T09:24:27;101809.97;;;27.91;28.30
75692;BME280;64307;52.508;6.090;2023-06-14T09:26:53;101808.63;;;28.85;26.84
75692;BME280;64307;52.508;6.090;2023-06-14T09:29:18;101807.88;;;27.24;28.88
75692;BME280;64307;52.508;6.090;2023-06-14T09:31:46;101808.47;;;27.13;29.09
75692;BME280;64307;52.508;6.090;2023-06-14T09:34:12;101799.81;;;29.29;27.39
75692;BME280;64307;52.508;6.090;2023-06-14T09:36:39;101797.94;;;28.16;27.75
75692;BME280;64307;52.508;6.090;2023-06-14T09:39:05;101802.19;;;28.90;27.02
75692;BME280;64307;52.508;6.090;2023-06-14T09:41:39;101809.97;;;27.76;27.92
75692;BME280;64307;52.508;6.090;2023-06-14T09:44:06;101810.06;;;27.82;27.79
75692;BME280;64307;52.508;6.090;2023-06-14T09:46:34;101816.84;;;27.17;28.85
75692;BME280;64307;52.508;6.090;2023-06-14T09:49:01;101802.59;;;28.48;27.28
75692;BME280;64307;52.508;6.090;2023-06-14T09:51:27;101820.41;;;27.50;28.06
75692;BME280;64307;52.508;6.090;2023-06-14T09:53:59;101805.59;;;27.13;28.20
75692;BME280;64307;52.508;6.090;2023-06-14T09:56:29;101812.13;;;28.25;26.85
75692;BME280;64307;52.508;6.090;2023-06-14T09:58:59;101813.78;;;27.44;28.60
75692;BME280;64307;52.508;6.090;2023-06-14T10:01:25;101806.59;;;28.21;27.66
75692;BME280;64307;52.508;6.090;2023-06-14T10:04:00;101815.78;;;27.29;28.50
75692;BME280;64307;52.508;6.090;2023-06-14T10:06:28;101814.03;;;26.60;29.33
75692;BME280;64307;52.508;6.090;2023-06-14T10:08:59;101812.69;;;26.47;30.57
75692;BME280;64307;52.508;6.090;2023-06-14T10:11:26;101802.28;;;26.58;29.92
75692;BME280;64307;52.508;6.090;2023-06-14T10:13:52;101809.75;;;28.73;28.05
75692;BME280;64307;52.508;6.090;2023-06-14T10:16:23;101820.63;;;27.23;29.46
75692;BME280;64307;52.508;6.090;2023-06-14T10:19:04;101805.06;;;26.76;29.99
75692;BME280;64307;52.508;6.090;2023-06-14T10:21:41;101817.31;;;27.01;29.97
75692;BME280;64307;52.508;6.090;2023-06-14T10:24:13;101815.16;;;27.48;28.04
75692;BME280;64307;52.508;6.090;2023-06-14T10:26:52;101815.13;;;26.63;29.90
75692;BME280;64307;52.508;6.090;2023-06-14T10:29:17;101808.66;;;27.48;28.79
75692;BME280;64307;52.508;6.090;2023-06-14T10:31:44;101807.66;;;27.13;29.04
75692;BME280;64307;52.508;6.090;2023-06-14T10:37:12;101798.06;;;28.56;27.66
75692;BME280;64307;52.508;6.090;2023-06-14T10:39:42;101803.69;;;29.05;26.80
75692;BME280;64307;52.508;6.090;2023-06-14T10:42:09;101808.97;;;27.50;27.90
75692;BME280;64307;52.508;6.090;2023-06-14T10:44:55;101806.28;;;27.61;27.57
75692;BME280;64307;52.508;6.090;2023-06-14T10:47:36;101798.88;;;26.13;29.95
75692;BME280;64307;52.508;6.090;2023-06-14T10:50:06;101801.34;;;27.09;28.27
75692;BME280;64307;52.508;6.090;2023-06-14T10:52:34;101812.03;;;27.76;27.45
75692;BME280;64307;52.508;6.090;2023-06-14T10:57:35;101792.16;;;26.57;29.28
75692;BME280;64307;52.508;6.090;2023-06-14T11:00:00;101814.19;;;26.90;29.35
75692;BME280;64307;52.508;6.090;2023-06-14T11:05:51;101789.84;;;25.96;30.07
75692;BME280;64307;52.508;6.090;2023-06-14T11:10:54;101778.97;;;28.04;28.90
75692;BME280;64307;52.508;6.090;2023-06-14T11:13:24;101781.97;;;28.29;28.33
75692;BME280;64307;52.508;6.090;2023-06-14T11:15:50;101777.16;;;27.92;28.23
75692;BME280;64307;52.508;6.090;2023-06-14T11:18:22;101804.19;;;26.61;29.14
75692;BME280;64307;52.508;6.090;2023-06-14T11:20:49;101795.78;;;26.91;28.05
75692;BME280;64307;52.508;6.090;2023-06-14T11:23:17;101778.19;;;26.83;27.94
75692;BME280;64307;52.508;6.090;2023-06-14T11:25:42;101786.38;;;28.60;26.81
75692;BME280;64307;52.508;6.090;2023-06-14T11:28:07;101775.53;;;27.32;26.84
75692;BME280;64307;52.508;6.090;2023-06-14T11:30:33;101769.00;;;27.85;26.94
75692;BME280;64307;52.508;6.090;2023-06-14T11:32:58;101787.50;;;26.93;28.52
75692;BME280;64307;52.508;6.090;2023-06-14T11:35:25;101782.59;;;26.28;29.01
75692;BME280;64307;52.508;6.090;2023-06-14T11:37:55;101787.91;;;27.00;28.49
75692;BME280;64307;52.508;6.090;2023-06-14T11:40:23;101775.53;;;26.47;28.39
75692;BME280;64307;52.508;6.090;2023-06-14T11:42:49;101759.50;;;26.17;28.76
75692;BME280;64307;52.508;6.090;2023-06-14T11:45:14;101768.91;;;26.08;29.17
75692;BME280;64307;52.508;6.090;2023-06-14T11:47:40;101765.97;;;26.26;28.81
75692;BME280;64307;52.508;6.090;2023-06-14T11:50:07;101769.06;;;26.05;30.02
75692;BME280;64307;52.508;6.090;2023-06-14T11:52:37;101775.56;;;26.38;28.77
75692;BME280;64307;52.508;6.090;2023-06-14T11:55:03;101774.34;;;26.30;29.36
75692;BME280;64307;52.508;6.090;2023-06-14T11:57:30;101779.53;;;25.98;29.99
75692;BME280;64307;52.508;6.090;2023-06-14T11:59:58;101777.88;;;25.65;30.26
75692;BME280;64307;52.508;6.090;2023-06-14T12:02:24;101769.94;;;26.20;29.11
75692;BME280;64307;52.508;6.090;2023-06-14T12:04:50;101786.75;;;25.76;29.90
75692;BME280;64307;52.508;6.090;2023-06-14T12:07:16;101773.50;;;25.96;30.03
75692;BME280;64307;52.508;6.090;2023-06-14T12:12:17;101766.44;;;25.74;29.21
75692;BME280;64307;52.508;6.090;2023-06-14T12:14:42;101771.50;;;25.79;28.87
75692;BME280;64307;52.508;6.090;2023-06-14T12:17:07;101777.69;;;26.28;28.02
75692;BME280;64307;52.508;6.090;2023-06-14T12:19:41;101766.78;;;25.76;29.05
75692;BME280;64307;52.508;6.090;2023-06-14T12:22:12;101770.44;;;26.74;28.65
75692;BME280;64307;52.508;6.090;2023-06-14T12:24:38;101767.19;;;26.34;29.26
75692;BME280;64307;52.508;6.090;2023-06-14T12:27:05;101772.13;;;26.57;28.43
75692;BME280;64307;52.508;6.090;2023-06-14T12:29:31;101766.50;;;26.72;27.93
75692;BME280;64307;52.508;6.090;2023-06-14T12:31:57;101767.78;;;26.15;28.58
75692;BME280;64307;52.508;6.090;2023-06-14T12:34:23;101770.31;;;26.45;28.82
75692;BME280;64307;52.508;6.090;2023-06-14T12:36:53;101781.88;;;26.74;28.88
75692;BME280;64307;52.508;6.090;2023-06-14T12:39:18;101773.09;;;26.54;28.48
75692;BME280;64307;52.508;6.090;2023-06-14T12:41:44;101772.41;;;26.36;29.14
75692;BME280;64307;52.508;6.090;2023-06-14T12:44:14;101768.97;;;26.55;29.08
75692;BME280;64307;52.508;6.090;2023-06-14T12:46:41;101768.91;;;26.64;29.16
75692;BME280;64307;52.508;6.090;2023-06-14T12:49:10;101762.88;;;26.62;28.89
75692;BME280;64307;52.508;6.090;2023-06-14T12:51:39;101767.81;;;27.09;29.23
75692;BME280;64307;52.508;6.090;2023-06-14T12:54:05;101772.38;;;26.68;29.26
75692;BME280;64307;52.508;6.090;2023-06-14T12:56:31;101756.59;;;26.26;29.24
75692;BME280;64307;52.508;6.090;2023-06-14T12:58:58;101773.78;;;26.49;29.52
75692;BME280;64307;52.508;6.090;2023-06-14T13:01:24;101761.44;;;26.67;29.45
75692;BME280;64307;52.508;6.090;2023-06-14T13:03:50;101761.13;;;26.65;29.65
75692;BME280;64307;52.508;6.090;2023-06-14T13:06:16;101779.69;;;26.69;28.79
75692;BME280;64307;52.508;6.090;2023-06-14T13:08:42;101774.81;;;26.37;29.86